Kennedy Heights, Ohio
Current Conditions -  °F | °C
As of 2:53 PM on Tuesday 21 Oct 2014 (Local Time) from KLUK Reporting Station
Overcast Overcast  
Wind Chill: 53°   Ceiling: 4700
Heat Index: 53°   Visibility: 10mi
Dew Point: 41°   Wind: 13mph
Humidity: 64%   Direction: 340°NNW
Pressure: 30.06"   Gusts: NA
Location:  39.1805°N, 84.4198°W
Report Text: KLUK 211853Z 34011KT 10SM OVC047 12/05 A3006 RMK AO2 SLP178 T01170050
Loading
Personal Weather Stations






























Interactive Weather Map
Tropical Storm Tracking
New forecast layout! Learn more

10-Day Weather Forecast

Advertisements
Track Severe Weather on mobile